Gateway National Recreation, New Jersey
Current Conditions -  °F | °C
As of 4:35 AM on Thursday 27 Nov 2014 (Local Time) from KBLM Reporting Station
Overcast Overcast  
Wind Chill: 31°   Ceiling: 6500
Heat Index: 36°   Visibility: 10mi
Dew Point: 28°   Wind: 6mph
Humidity: 75%   Direction: 280°W
Pressure: 29.94"   Gusts: NA
Location:  40.4012°N, 73.9902°W
Report Text: KBLM 270935Z AUTO 28005KT 10SM BKN065 OVC080 02/M02 A2994 RMK AO1
Loading
Personal Weather Stations






























Interactive Weather Map New forecast layout! Learn more

10-Day Weather Forecast

Advertisements
Track Severe Weather on mobile